createdAt,value
2017-09-09T00:01:15.477Z,11.73
2017-09-09T00:03:43.654Z,11.30
2017-09-09T00:06:13.343Z,11.13
2017-09-09T00:08:41.477Z,10.97
2017-09-09T00:11:09.631Z,9.83
2017-09-09T00:13:37.729Z,10.40
2017-09-09T00:16:05.917Z,11.23
2017-09-09T00:18:34.071Z,8.97
2017-09-09T00:21:03.018Z,10.10
2017-09-09T00:23:31.148Z,12.37
2017-09-09T00:25:59.292Z,12.03
2017-09-09T00:28:27.433Z,8.43
2017-09-09T00:30:55.566Z,8.67
2017-09-09T00:33:23.715Z,9.60
2017-09-09T00:35:51.831Z,8.40
2017-09-09T00:38:19.940Z,11.07
2017-09-09T00:40:48.850Z,10.00
2017-09-09T00:43:17.195Z,10.40
2017-09-09T00:45:45.331Z,10.20
2017-09-09T00:48:14.257Z,11.50
2017-09-09T00:50:42.362Z,8.80
2017-09-09T00:53:10.507Z,10.00
2017-09-09T00:55:39.403Z,10.27
2017-09-09T00:58:08.161Z,12.53
2017-09-09T01:00:36.316Z,10.70
2017-09-09T01:03:04.448Z,11.23
2017-09-09T01:05:32.804Z,10.73
2017-09-09T01:08:00.938Z,9.03
2017-09-09T01:10:29.900Z,9.80
2017-09-09T01:12:58.751Z,9.93
2017-09-09T01:15:26.865Z,8.83
2017-09-09T01:17:55.036Z,8.40
2017-09-09T01:20:23.184Z,11.70
2017-09-09T01:22:51.309Z,13.20
2017-09-09T01:25:19.641Z,9.17
2017-09-09T01:27:48.485Z,10.63
2017-09-09T01:30:17.506Z,9.20
2017-09-09T01:32:46.401Z,9.30
2017-09-09T01:35:14.529Z,9.03
2017-09-09T01:37:42.662Z,9.77
2017-09-09T01:40:11.584Z,10.70
2017-09-09T01:42:40.382Z,10.33
2017-09-09T01:45:09.325Z,9.50
2017-09-09T01:47:38.235Z,9.97
2017-09-09T01:50:06.382Z,10.00
2017-09-09T01:52:34.548Z,11.70
2017-09-09T01:55:02.702Z,8.37
2017-09-09T01:57:30.941Z,8.07
2017-09-09T01:59:59.071Z,7.50
2017-09-09T02:02:27.228Z,10.80
2017-09-09T02:04:55.386Z,7.10
2017-09-09T02:07:23.566Z,10.37
2017-09-09T02:09:51.845Z,9.23
2017-09-09T02:12:20.040Z,10.50
2017-09-09T02:14:48.159Z,9.00
2017-09-09T02:17:16.417Z,8.77
2017-09-09T02:19:44.599Z,9.00
2017-09-09T02:22:12.887Z,11.27
2017-09-09T02:24:41.023Z,9.50
2017-09-09T02:27:09.190Z,12.13
2017-09-09T02:29:37.307Z,9.30
2017-09-09T02:32:05.431Z,6.87
2017-09-09T02:34:34.324Z,9.10
2017-09-09T02:37:02.467Z,9.03
2017-09-09T02:39:30.642Z,11.73
2017-09-09T02:41:58.765Z,6.87
2017-09-09T02:44:26.888Z,11.30
2017-09-09T02:46:55.777Z,10.70
2017-09-09T02:49:23.977Z,9.80
2017-09-09T02:51:52.341Z,9.90
2017-09-09T02:54:20.481Z,9.40
2017-09-09T02:56:48.684Z,8.83
2017-09-09T02:59:16.801Z,7.70
2017-09-09T03:01:44.961Z,8.00
2017-09-09T03:04:13.108Z,9.80
2017-09-09T03:06:41.257Z,10.87
2017-09-09T03:09:09.399Z,10.13
2017-09-09T03:11:37.539Z,12.87
2017-09-09T03:14:05.697Z,11.93
2017-09-09T03:16:33.853Z,9.50
2017-09-09T03:19:02.030Z,7.83
2017-09-09T03:21:30.153Z,8.73
2017-09-09T03:23:58.308Z,7.03
2017-09-09T03:26:26.445Z,9.33
2017-09-09T03:28:54.608Z,10.30
2017-09-09T03:31:23.781Z,6.80
2017-09-09T03:33:51.950Z,8.03
2017-09-09T03:36:20.832Z,10.40
2017-09-09T03:38:49.579Z,8.17
2017-09-09T03:41:18.482Z,8.47
2017-09-09T03:43:46.650Z,10.73
2017-09-09T03:46:15.586Z,9.60
2017-09-09T03:48:43.777Z,7.23
2017-09-09T03:51:12.684Z,7.63
2017-09-09T03:53:41.698Z,8.20
2017-09-09T03:56:09.851Z,12.53
2017-09-09T03:58:38.057Z,7.57
2017-09-09T04:01:06.276Z,6.73
2017-09-09T04:03:35.207Z,7.10
2017-09-09T04:06:04.615Z,7.57
2017-09-09T04:08:32.936Z,10.10
2017-09-09T04:11:01.309Z,9.43
2017-09-09T04:13:30.008Z,7.20
2017-09-09T04:15:58.979Z,6.20
2017-09-09T04:18:27.867Z,6.90
2017-09-09T04:23:30.565Z,10.80
2017-09-09T04:25:59.467Z,7.47
2017-09-09T04:28:27.595Z,6.13
2017-09-09T04:30:55.704Z,6.00
2017-09-09T04:33:23.881Z,5.47
2017-09-09T04:35:52.069Z,8.90
2017-09-09T04:38:20.224Z,6.93
2017-09-09T04:40:49.076Z,8.40
2017-09-09T04:43:18.059Z,10.50
2017-09-09T04:45:46.201Z,9.17
2017-09-09T04:48:14.409Z,6.77
2017-09-09T04:50:42.554Z,11.50
2017-09-09T04:53:10.718Z,7.40
2017-09-09T04:55:38.899Z,9.00
2017-09-09T04:58:07.054Z,6.27
2017-09-09T05:00:35.166Z,7.10
2017-09-09T05:03:03.302Z,9.73
2017-09-09T05:05:32.093Z,9.03
2017-09-09T05:08:03.117Z,8.47
2017-09-09T05:10:32.042Z,7.50
2017-09-09T05:13:00.267Z,7.70
2017-09-09T05:15:28.446Z,6.10
2017-09-09T05:17:56.612Z,7.97
2017-09-09T05:20:24.863Z,7.80
2017-09-09T05:22:53.045Z,8.10
2017-09-09T05:25:21.233Z,10.07
2017-09-09T05:27:49.407Z,7.30
2017-09-09T05:30:17.501Z,6.37
2017-09-09T05:32:46.407Z,8.10
2017-09-09T05:35:14.543Z,8.23
2017-09-09T05:37:42.690Z,7.27
2017-09-09T05:40:10.913Z,7.70
2017-09-09T05:42:39.281Z,13.73
2017-09-09T05:45:08.175Z,6.30
2017-09-09T05:47:37.126Z,9.13
2017-09-09T05:50:06.232Z,6.23
2017-09-09T05:52:34.394Z,6.80
2017-09-09T05:55:02.642Z,11.60
2017-09-09T05:57:31.738Z,6.20
2017-09-09T06:00:00.761Z,10.40
2017-09-09T06:02:28.959Z,8.03
2017-09-09T06:04:57.161Z,9.33
2017-09-09T06:07:25.352Z,7.50
2017-09-09T06:09:53.508Z,9.53
2017-09-09T06:12:22.517Z,9.00
2017-09-09T06:14:52.288Z,7.70
2017-09-09T06:17:20.469Z,6.90
2017-09-09T06:19:48.749Z,10.17
2017-09-09T06:22:17.642Z,8.13
2017-09-09T06:24:45.792Z,7.80
2017-09-09T06:27:14.054Z,8.87
2017-09-09T06:29:42.999Z,11.00
2017-09-09T06:32:11.997Z,9.93
2017-09-09T06:34:41.062Z,10.77
2017-09-09T06:37:09.678Z,9.27
2017-09-09T06:39:38.226Z,9.43
2017-09-09T06:42:06.667Z,7.80
2017-09-09T06:44:35.935Z,8.07
2017-09-09T06:47:04.708Z,8.90
2017-09-09T06:49:33.712Z,7.87
2017-09-09T06:52:01.861Z,10.97
2017-09-09T06:54:30.043Z,7.87
2017-09-09T06:56:58.312Z,11.53
2017-09-09T06:59:26.508Z,12.30
2017-09-09T07:01:54.668Z,9.83
2017-09-09T07:04:22.882Z,10.37
2017-09-09T07:06:51.095Z,11.33
2017-09-09T07:09:20.048Z,10.10
2017-09-09T07:11:48.399Z,9.47
2017-09-09T07:14:16.601Z,15.30
2017-09-09T07:16:44.828Z,13.10
2017-09-09T07:19:13.704Z,10.83
2017-09-09T07:21:42.042Z,12.50
2017-09-09T07:24:10.230Z,7.97
2017-09-09T07:26:38.443Z,7.07
2017-09-09T07:29:06.758Z,7.50
2017-09-09T07:31:35.819Z,10.23
2017-09-09T07:34:04.099Z,9.33
2017-09-09T07:36:32.813Z,11.07
2017-09-09T07:39:01.757Z,7.37
2017-09-09T07:41:30.050Z,14.07
2017-09-09T07:43:59.075Z,9.07
2017-09-09T07:46:28.704Z,11.20
2017-09-09T07:48:57.626Z,8.33
2017-09-09T07:51:26.597Z,13.87
2017-09-09T07:53:55.127Z,12.23
2017-09-09T07:56:24.122Z,15.47
2017-09-09T07:58:52.337Z,12.70
2017-09-09T08:01:21.415Z,12.77
2017-09-09T08:03:49.587Z,10.27
2017-09-09T08:06:17.746Z,9.83
2017-09-09T08:08:45.935Z,9.30
2017-09-09T08:11:14.177Z,8.67
2017-09-09T08:13:42.282Z,10.60
2017-09-09T08:16:10.432Z,14.77
2017-09-09T08:18:38.704Z,11.00
2017-09-09T08:21:06.868Z,9.10
2017-09-09T08:23:35.023Z,9.17
2017-09-09T08:26:03.251Z,10.60
2017-09-09T08:28:31.415Z,11.23
2017-09-09T08:30:59.813Z,12.07
2017-09-09T08:33:28.827Z,9.10
2017-09-09T08:35:57.015Z,10.67
2017-09-09T08:38:25.231Z,13.50
2017-09-09T08:40:53.482Z,10.87
2017-09-09T08:43:22.393Z,12.07
2017-09-09T08:45:50.597Z,9.53
2017-09-09T08:48:19.082Z,9.73
2017-09-09T08:50:47.286Z,13.30
2017-09-09T08:53:15.446Z,9.23
2017-09-09T08:55:43.717Z,11.50
2017-09-09T08:58:11.966Z,11.97
2017-09-09T09:00:41.442Z,9.83
2017-09-09T09:03:10.635Z,10.77
2017-09-09T09:05:38.832Z,15.30
2017-09-09T09:08:07.147Z,14.00
2017-09-09T09:10:35.305Z,9.60
2017-09-09T09:13:04.192Z,12.50
2017-09-09T09:15:32.296Z,11.43
2017-09-09T09:18:00.398Z,11.67
2017-09-09T09:20:28.473Z,9.73
2017-09-09T09:22:57.397Z,10.17
2017-09-09T09:25:25.601Z,11.60
2017-09-09T09:27:53.760Z,10.63
2017-09-09T09:30:21.860Z,9.93
2017-09-09T09:32:49.993Z,12.60
2017-09-09T09:35:18.110Z,13.47
2017-09-09T09:37:46.242Z,14.63
2017-09-09T09:40:14.401Z,11.17
2017-09-09T09:42:43.399Z,15.23
2017-09-09T09:45:12.268Z,17.97
2017-09-09T09:47:40.417Z,11.93
2017-09-09T09:50:08.591Z,12.70
2017-09-09T09:52:36.698Z,13.40
2017-09-09T09:55:05.598Z,14.13
2017-09-09T09:57:33.700Z,10.23
2017-09-09T10:00:02.648Z,9.73
2017-09-09T10:02:30.921Z,10.37
2017-09-09T10:04:59.075Z,11.00
2017-09-09T10:07:27.194Z,11.33
2017-09-09T10:09:55.370Z,11.77
2017-09-09T10:12:23.550Z,11.60
2017-09-09T10:14:51.717Z,12.30
2017-09-09T10:17:19.830Z,13.40
2017-09-09T10:19:47.966Z,11.13
2017-09-09T10:22:16.057Z,10.60
2017-09-09T10:24:48.951Z,12.83
2017-09-09T10:27:17.061Z,10.30
2017-09-09T10:29:46.019Z,9.63
2017-09-09T10:32:14.202Z,13.47
2017-09-09T10:34:43.221Z,12.97
2017-09-09T10:37:11.362Z,10.93
2017-09-09T10:39:39.513Z,10.80
2017-09-09T10:42:08.423Z,10.63
2017-09-09T10:44:36.545Z,10.20
2017-09-09T10:47:04.661Z,9.87
2017-09-09T10:49:32.776Z,11.10
2017-09-09T10:52:00.939Z,11.50
2017-09-09T10:54:29.068Z,11.13
2017-09-09T10:56:57.216Z,10.60
2017-09-09T10:59:25.404Z,11.70
2017-09-09T11:01:53.494Z,11.13
2017-09-09T11:04:22.401Z,9.50
2017-09-09T11:06:51.229Z,9.00
2017-09-09T11:09:19.344Z,11.17
2017-09-09T11:11:47.472Z,12.80
2017-09-09T11:14:15.599Z,8.10
2017-09-09T11:16:44.434Z,10.03
2017-09-09T11:19:13.304Z,10.53
2017-09-09T11:21:41.419Z,8.50
2017-09-09T11:24:09.984Z,7.40
2017-09-09T11:26:38.214Z,7.33
2017-09-09T11:29:07.058Z,6.93
2017-09-09T11:31:35.203Z,6.83
2017-09-09T11:34:03.297Z,8.10
2017-09-09T11:36:32.254Z,7.13
2017-09-09T11:39:00.414Z,7.80
2017-09-09T11:41:28.538Z,9.57
2017-09-09T11:43:56.657Z,7.87
2017-09-09T11:46:24.780Z,9.23
2017-09-09T11:48:52.890Z,7.90
2017-09-09T11:51:20.984Z,7.83
2017-09-09T11:53:49.132Z,8.80
2017-09-09T11:56:17.299Z,8.00
2017-09-09T11:58:46.459Z,10.30
2017-09-09T12:01:15.360Z,9.93
2017-09-09T12:03:43.494Z,10.27
2017-09-09T12:06:11.619Z,9.80
2017-09-09T12:08:39.725Z,8.23
2017-09-09T12:11:07.844Z,8.07
2017-09-09T12:13:35.978Z,9.93
2017-09-09T12:16:04.106Z,8.40
2017-09-09T12:18:32.195Z,7.63
2017-09-09T12:21:01.069Z,9.97
2017-09-09T12:23:29.172Z,7.83
2017-09-09T12:25:58.021Z,7.97
2017-09-09T12:28:26.148Z,7.80
2017-09-09T12:30:54.803Z,10.03
2017-09-09T12:33:22.944Z,8.60
2017-09-09T12:35:51.848Z,8.20
2017-09-09T12:38:19.937Z,8.17
2017-09-09T12:40:48.823Z,7.90
2017-09-09T12:43:16.912Z,9.53
2017-09-09T12:45:45.007Z,9.33
2017-09-09T12:48:13.147Z,11.20
2017-09-09T12:50:41.282Z,7.43
2017-09-09T12:53:09.387Z,9.37
2017-09-09T12:55:37.515Z,6.97
2017-09-09T12:58:06.373Z,7.20
2017-09-09T13:00:34.477Z,6.97
2017-09-09T13:03:02.591Z,8.23
2017-09-09T13:05:31.919Z,7.13
2017-09-09T13:08:00.013Z,8.00
2017-09-09T13:10:28.141Z,6.40
2017-09-09T13:12:56.239Z,5.77
2017-09-09T13:15:25.177Z,5.03
2017-09-09T13:17:53.315Z,4.67
2017-09-09T13:20:21.422Z,7.60
2017-09-09T13:22:49.537Z,3.87
2017-09-09T13:25:17.663Z,5.27
2017-09-09T13:27:45.771Z,5.57
2017-09-09T13:30:14.650Z,6.30
2017-09-09T13:32:42.781Z,3.50
2017-09-09T13:35:10.891Z,4.23
2017-09-09T13:37:39.734Z,3.30
2017-09-09T13:40:08.613Z,6.23
2017-09-09T13:42:37.488Z,1.60
2017-09-09T13:45:05.587Z,2.27
2017-09-09T13:47:33.721Z,1.73
2017-09-09T13:50:01.919Z,1.77
2017-09-09T13:52:30.025Z,1.80
2017-09-09T13:57:33.345Z,1.13
2017-09-09T14:00:02.276Z,2.30
2017-09-09T14:02:30.368Z,1.30
2017-09-09T14:04:59.089Z,1.20
2017-09-09T14:07:27.219Z,1.20
2017-09-09T14:09:55.301Z,2.07
2017-09-09T14:12:23.417Z,1.60
2017-09-09T14:14:51.489Z,1.40
2017-09-09T14:17:19.582Z,1.77
2017-09-09T14:19:47.699Z,1.43
2017-09-09T14:22:15.805Z,1.10
2017-09-09T14:24:43.899Z,1.10
2017-09-09T14:27:12.016Z,1.20
2017-09-09T14:29:40.880Z,1.23
2017-09-09T14:32:08.978Z,1.10
2017-09-09T14:34:37.105Z,2.67
2017-09-09T14:37:06.008Z,1.43
2017-09-09T14:39:34.123Z,1.80
2017-09-09T14:42:03.000Z,1.17
2017-09-09T14:44:31.086Z,2.13
2017-09-09T14:46:59.204Z,1.60
2017-09-09T14:49:27.494Z,2.07
2017-09-09T14:51:55.599Z,1.60
2017-09-09T14:54:23.818Z,1.60
2017-09-09T14:56:51.996Z,1.37
2017-09-09T14:59:20.098Z,2.07
2017-09-09T15:01:48.984Z,1.77
2017-09-09T15:04:17.126Z,2.00
2017-09-09T15:06:45.242Z,3.60
2017-09-09T15:09:13.381Z,1.93
2017-09-09T15:11:41.489Z,1.60
2017-09-09T15:14:09.593Z,3.13
2017-09-09T15:16:37.713Z,1.40
2017-09-09T15:19:05.813Z,1.70
2017-09-09T15:21:34.675Z,2.23
2017-09-09T15:24:03.567Z,1.40
2017-09-09T15:26:32.446Z,1.63
2017-09-09T15:29:00.585Z,1.70
2017-09-09T15:31:28.822Z,1.73
2017-09-09T15:33:56.902Z,1.60
2017-09-09T15:36:25.768Z,1.60
2017-09-09T15:38:54.660Z,1.70
2017-09-09T15:41:22.782Z,2.07
2017-09-09T15:43:50.892Z,2.20
2017-09-09T15:46:19.011Z,2.40
2017-09-09T15:48:47.103Z,1.70
2017-09-09T15:51:15.963Z,2.43
2017-09-09T15:53:44.070Z,1.87
2017-09-09T15:56:12.171Z,2.27
2017-09-09T15:58:40.282Z,1.83
2017-09-09T16:01:08.380Z,1.97
2017-09-09T16:03:37.244Z,2.90
2017-09-09T16:06:05.345Z,2.43
2017-09-09T16:08:33.487Z,2.60
2017-09-09T16:11:02.425Z,2.80
2017-09-09T16:13:30.509Z,2.40
2017-09-09T16:15:58.613Z,1.70
2017-09-09T16:18:26.707Z,1.80
2017-09-09T16:20:55.577Z,1.90
2017-09-09T16:23:23.729Z,2.63
2017-09-09T16:25:52.597Z,2.17
2017-09-09T16:28:20.663Z,1.80
2017-09-09T16:30:48.759Z,2.43
2017-09-09T16:33:16.824Z,3.03
2017-09-09T16:35:45.738Z,2.80
2017-09-09T16:38:13.833Z,3.10
2017-09-09T16:40:42.274Z,2.47
2017-09-09T16:43:11.151Z,2.37
2017-09-09T16:45:39.280Z,2.53
2017-09-09T16:48:08.144Z,2.50
2017-09-09T16:50:36.279Z,2.30
2017-09-09T16:53:04.359Z,2.40
2017-09-09T16:55:32.429Z,2.57
2017-09-09T16:58:00.587Z,4.30
2017-09-09T17:00:29.478Z,2.90
2017-09-09T17:02:57.664Z,4.60
2017-09-09T17:05:26.229Z,3.20
2017-09-09T17:07:54.320Z,2.00
2017-09-09T17:10:22.446Z,3.40
2017-09-09T17:12:50.565Z,2.53
2017-09-09T17:15:19.447Z,3.40
2017-09-09T17:17:47.542Z,3.13
2017-09-09T17:20:15.707Z,3.07
2017-09-09T17:22:43.997Z,3.37
2017-09-09T17:25:12.290Z,2.60
2017-09-09T17:27:42.509Z,3.77
2017-09-09T17:30:11.374Z,2.20
2017-09-09T17:32:39.533Z,2.83
2017-09-09T17:35:08.127Z,5.17
2017-09-09T17:37:36.991Z,4.90
2017-09-09T17:40:05.095Z,3.47
2017-09-09T17:42:33.305Z,2.60
2017-09-09T17:45:01.415Z,2.60
2017-09-09T17:47:30.275Z,3.57
2017-09-09T17:49:58.417Z,2.33
2017-09-09T17:52:27.089Z,2.50
2017-09-09T17:54:55.204Z,2.60
2017-09-09T17:57:23.362Z,3.27
2017-09-09T17:59:51.442Z,4.47
2017-09-09T18:02:19.537Z,3.40
2017-09-09T18:04:47.655Z,2.67
2017-09-09T18:07:15.764Z,2.70
2017-09-09T18:09:43.887Z,2.83
2017-09-09T18:12:12.014Z,3.40
2017-09-09T18:14:40.199Z,2.80
2017-09-09T18:17:08.375Z,3.00
2017-09-09T18:19:36.504Z,2.60
2017-09-09T18:22:04.703Z,2.77
2017-09-09T18:24:32.826Z,14.60
2017-09-09T18:27:00.921Z,3.17
2017-09-09T18:29:29.133Z,3.10
2017-09-09T18:31:57.291Z,3.20
2017-09-09T18:34:25.411Z,2.93
2017-09-09T18:36:54.336Z,4.10
2017-09-09T18:39:22.776Z,4.33
2017-09-09T18:41:52.322Z,4.23
2017-09-09T18:44:20.481Z,4.60
2017-09-09T18:46:49.359Z,4.83
2017-09-09T18:49:17.523Z,4.47
2017-09-09T18:51:45.652Z,4.30
2017-09-09T18:54:13.827Z,4.03
2017-09-09T18:56:41.995Z,4.30
2017-09-09T18:59:10.114Z,4.20
2017-09-09T19:01:38.249Z,3.73
2017-09-09T19:04:06.451Z,4.20
2017-09-09T19:06:34.589Z,4.77
2017-09-09T19:09:02.813Z,4.60
2017-09-09T19:11:30.997Z,5.80
2017-09-09T19:13:59.123Z,4.50
2017-09-09T19:16:27.300Z,4.47
2017-09-09T19:18:56.223Z,4.37
2017-09-09T19:21:24.376Z,3.90
2017-09-09T19:23:53.251Z,4.10
2017-09-09T19:26:21.328Z,3.93
2017-09-09T19:28:50.232Z,3.90
2017-09-09T19:31:19.098Z,3.57
2017-09-09T19:33:47.229Z,3.50
2017-09-09T19:36:15.387Z,3.87
2017-09-09T19:38:43.511Z,4.03
2017-09-09T19:41:11.597Z,4.30
2017-09-09T19:43:41.099Z,4.60
2017-09-09T19:46:09.209Z,4.50
2017-09-09T19:48:37.347Z,4.13
2017-09-09T19:51:05.455Z,4.13
2017-09-09T19:53:34.397Z,4.27
2017-09-09T19:56:02.512Z,4.10
2017-09-09T19:58:30.644Z,4.20
2017-09-09T20:00:59.539Z,3.70
2017-09-09T20:03:29.035Z,4.13
2017-09-09T20:05:57.877Z,4.70
2017-09-09T20:08:26.217Z,4.33
2017-09-09T20:10:55.096Z,5.23
2017-09-09T20:13:23.216Z,5.20
2017-09-09T20:15:51.446Z,4.73
2017-09-09T20:18:19.617Z,5.17
2017-09-09T20:20:48.508Z,4.57
2017-09-09T20:23:17.404Z,5.20
2017-09-09T20:25:45.603Z,5.27
2017-09-09T20:28:14.585Z,4.80
2017-09-09T20:30:43.466Z,5.53
2017-09-09T20:33:11.605Z,5.10
2017-09-09T20:35:39.800Z,4.40
2017-09-09T20:38:07.976Z,5.70
2017-09-09T20:40:36.162Z,6.57
2017-09-09T20:43:04.334Z,5.43
2017-09-09T20:45:32.445Z,5.27
2017-09-09T20:48:00.651Z,5.80
2017-09-09T20:50:28.797Z,9.40
2017-09-09T20:52:57.723Z,5.80
2017-09-09T20:55:25.872Z,5.97
2017-09-09T20:57:54.804Z,6.30
2017-09-09T21:00:23.687Z,5.43
2017-09-09T21:02:51.808Z,5.93
2017-09-09T21:05:20.763Z,5.50
2017-09-09T21:07:48.917Z,5.60
2017-09-09T21:10:17.050Z,6.33
2017-09-09T21:12:45.207Z,5.53
2017-09-09T21:15:13.313Z,5.90
2017-09-09T21:17:41.415Z,6.67
2017-09-09T21:20:09.539Z,5.13
2017-09-09T21:22:37.662Z,5.83
2017-09-09T21:25:06.518Z,5.23
2017-09-09T21:27:34.632Z,5.00
2017-09-09T21:30:02.747Z,4.77
2017-09-09T21:32:31.604Z,5.20
2017-09-09T21:34:59.764Z,5.20
2017-09-09T21:37:27.852Z,4.80
2017-09-09T21:39:55.982Z,5.23
2017-09-09T21:42:24.092Z,5.10
2017-09-09T21:44:52.180Z,5.13
2017-09-09T21:47:20.309Z,5.63
2017-09-09T21:49:48.395Z,5.20
2017-09-09T21:52:17.286Z,6.03
2017-09-09T21:54:45.391Z,6.77
2017-09-09T21:57:13.501Z,6.17
2017-09-09T21:59:42.061Z,6.40
2017-09-09T22:02:10.204Z,6.30
2017-09-09T22:04:38.338Z,5.37
2017-09-09T22:07:06.593Z,5.83
2017-09-09T22:09:34.732Z,5.73
2017-09-09T22:12:02.853Z,6.40
2017-09-09T22:14:31.721Z,5.90
2017-09-09T22:17:00.587Z,7.90
2017-09-09T22:19:28.871Z,6.23
2017-09-09T22:21:57.000Z,5.83
2017-09-09T22:24:25.144Z,6.50
2017-09-09T22:26:54.016Z,6.50
2017-09-09T22:29:22.136Z,6.57
2017-09-09T22:31:51.130Z,5.83
2017-09-09T22:34:19.289Z,7.40
2017-09-09T22:36:47.435Z,7.00
2017-09-09T22:39:15.539Z,6.73
2017-09-09T22:41:44.389Z,6.23
2017-09-09T22:44:12.548Z,7.17
2017-09-09T22:46:40.670Z,8.40
2017-09-09T22:49:08.789Z,8.10
2017-09-09T22:51:36.895Z,7.33
2017-09-09T22:54:05.028Z,7.97
2017-09-09T22:56:33.142Z,8.43
2017-09-09T22:59:02.059Z,7.57
2017-09-09T23:01:30.333Z,7.63
2017-09-09T23:06:32.802Z,7.60
2017-09-09T23:09:00.891Z,7.93
2017-09-09T23:11:29.254Z,8.20
2017-09-09T23:13:57.357Z,7.87
2017-09-09T23:16:25.462Z,8.20
2017-09-09T23:18:53.587Z,8.00
2017-09-09T23:21:21.717Z,8.43
2017-09-09T23:23:49.815Z,9.00
2017-09-09T23:26:17.917Z,7.83
2017-09-09T23:28:46.828Z,9.20
2017-09-09T23:31:15.013Z,9.60
2017-09-09T23:33:43.892Z,9.17
2017-09-09T23:36:12.026Z,8.83
2017-09-09T23:38:40.103Z,8.30
2017-09-09T23:41:08.207Z,9.00
2017-09-09T23:43:36.366Z,7.80
2017-09-09T23:46:04.460Z,9.20
2017-09-09T23:48:32.573Z,10.23
2017-09-09T23:51:00.699Z,8.87
2017-09-09T23:53:29.835Z,9.03
2017-09-09T23:55:58.698Z,9.87
2017-09-09T23:58:26.823Z,10.57
